Ban Ang Hin, Thailand

1:25 PM ICT on January 23, 2017 (GMT +0700)
Hua Hin Aero | | Change Station

Elev 20 ft 12.58 °N, 99.95 °E | Updated 25 minutes ago

Clear
Clear
84 °F
Feels Like 88 °F
N
15
Wind Variable Wind from NNE

Today
High -- | Low -- °F
--% Chance of Precip.
Yesterday
High -- | Low -- °F
Precip. -- in
Pressure 29.98 in
Visibility 5.6 miles
Clouds Few 3000 ft
Heat Index 88 °F
Dew Point 70 °F
Humidity 62%
Rainfall 0.00 in
Snow Depth Not available.
6:46 AM 6:17 PM
Waning Crescent, 21% visible
METAR VTPH 230600Z 03013KT 9000 FEW030 29/21 Q1015
Pressure 29.98 in
Visibility 5.6 miles
Clouds Few 3000 ft
Heat Index 88 °F
Dew Point 70 °F
Humidity 62%
Rainfall 0.00 in
Snow Depth Not available.
6:46 AM 6:17 PM
Waning Crescent, 21% visible
METAR VTPH 230600Z 03013KT 9000 FEW030 29/21 Q1015

Get Your Daily Forecast Email!

Thanks for signing up!

Be on the lookout for a verification email in your inbox.

You'll start receiving the daily forecast at 8 AM.

×

10-Day Weather Forecast

No radar image for this location.
×

Almanac

Astronomy

Jan. 23, 2017 Rise Set
Actual Time
Civil Twilight
Nautical Twilight
Astronomical Twilight
Moon
Length of Visible Light
Length of Day
Tomorrow will be .
, % of the Moon is Illuminated

Today's Extremes

Country Highs Country Lows

Community

WunderPhotos

Upload Photos

1,962,540 photos uploaded!

WunderBlog® & News

Nearby

Air Quality

  Air Quality AQ Index Pollutant
Not available.

Snow Depth

Station Depth Elevation

Earthquake Activity

City Distance Mag. Time & Date
Minimum magnitude displayed is 2.5.

Coastal Water Temperatures

Place Temperature

Stations

Nearby Weather Stations

Station Location Temp. Windchill Dew Point Humidity Wind Precip. Elev Updated Type